Date,TemperatureHighF,TemperatureAvgF,TemperatureLowF,DewpointHighF,DewpointAvgF,DewpointLowF,HumidityHigh,HumidityAvg,HumidityLow,PressureMaxIn,PressureMinIn,WindSpeedMaxMPH,WindSpeedAvgMPH,GustSpeedMaxMPH,PrecipitationSumIn
2013-8-1,84.8,67.5,53.0,57.8,47.3,33.0,78,51,25,29.92,29.80,2,0,7,0.00
2013-8-2,86.1,68.8,54.4,57.3,50.1,42.3,68,53,34,29.86,29.79,3,0,4,0.00
2013-8-3,87.0,70.1,55.6,56.8,47.8,32.8,67,47,30,29.89,29.81,3,0,7,0.00
2013-8-4,89.2,72.6,58.3,54.5,48.6,41.0,69,45,23,29.90,29.82,3,0,5,0.00
2013-8-5,90.8,73.9,60.2,52.0,44.1,33.3,55,36,18,29.89,29.81,4,0,7,0.00
2013-8-6,88.3,72.1,57.5,49.0,40.8,32.1,58,34,17,29.92,29.82,3,0,0,0.00
2013-8-7,86.9,70.7,57.5,50.2,41.7,33.0,52,37,17,29.97,29.86,3,0,7,0.00
2013-8-8,86.7,71.5,58.1,47.1,37.4,26.3,55,30,18,29.89,29.79,4,0,7,0.00
2013-8-9,84.6,68.5,53.9,51.7,45.5,36.7,59,45,28,29.86,29.78,2,0,4,0.00
2013-8-10,82.5,67.3,53.3,51.6,46.0,36.2,68,48,28,29.92,29.84,3,1,7,0.00
2013-8-11,86.5,69.1,53.9,53.6,48.3,41.2,68,50,27,29.90,29.79,3,0,9,0.00
2013-8-12,89.5,72.5,56.6,56.3,48.1,38.3,60,44,23,29.87,29.78,3,0,5,0.00
2013-8-13,92.2,74.8,59.0,56.6,47.8,37.4,60,40,24,29.86,29.76,3,0,4,0.00
2013-8-14,97.7,79.8,65.5,60.2,45.7,37.5,52,32,16,29.81,29.69,4,1,5,0.00
2013-8-15,97.3,80.7,68.9,56.1,47.6,40.3,41,32,20,29.82,29.73,3,0,5,0.00
2013-8-16,94.6,79.9,67.5,58.6,52.5,47.4,52,40,27,29.84,29.77,4,1,6,0.00
2013-8-17,96.2,80.6,68.2,57.6,54.1,51.5,56,42,24,29.83,29.69,3,0,6,0.00
2013-8-18,97.4,81.9,69.7,61.8,54.5,50.1,52,40,28,29.75,29.66,3,1,7,0.00
2013-8-19,90.9,80.6,72.6,64.7,58.4,53.1,58,47,37,29.78,29.70,3,0,9,0.00
2013-8-20,94.1,79.0,66.4,59.3,55.0,49.3,68,47,26,29.80,29.71,4,0,6,0.00
2013-8-21,96.3,81.0,67.6,55.5,48.8,40.7,47,34,19,29.81,29.71,3,0,6,0.00
2013-8-22,95.8,82.9,71.7,54.5,49.4,43.7,44,32,22,29.81,29.69,3,1,6,0.00
2013-8-23,95.2,80.5,67.9,54.2,47.6,43.4,46,33,21,29.76,29.62,3,0,6,0.00
2013-8-24,93.7,78.4,66.1,62.8,48.4,38.2,55,36,18,29.74,29.64,4,1,9,0.00
2013-8-25,91.3,77.5,66.9,62.8,57.0,49.2,62,50,36,29.83,29.71,3,1,9,0.00
2013-8-26,81.5,74.8,69.4,66.2,60.5,55.7,71,61,53,29.84,29.73,1,0,2,0.00
2013-8-27,92.7,78.6,68.0,65.0,60.4,56.8,69,55,37,29.76,29.65,4,1,9,0.00
2013-8-28,93.6,80.6,69.9,63.4,59.4,56.0,67,50,35,29.77,29.66,3,0,6,0.00
2013-8-29,90.6,82.0,70.5,70.7,65.2,55.9,82,58,41,29.84,29.79,4,0,6,0.13
2013-8-30,89.1,77.0,70.8,70.8,66.8,63.6,90,72,50,29.89,29.82,3,0,7,0.18
2013-8-31,86.0,75.7,68.7,72.1,68.6,66.5,95,80,56,29.90,29.77,2,0,4,0.00